Flight Track Log - Related Links

Times and Time Zones

All times are in EDT time to prevent confusion due to time zone crossing. See the FDX1254 flight status page for this flight to view local times or setup timezone preferences in your user account.

Time Position Orientation Groundspeed Altitude Reporting Facility
EDT Latitude Longitude Course Direction KTS MPH feet Rate Location/Type
Fri 11:13:37 PM 40.8200 -85.3290 234° Southwest 322 371 11,200  Level FlightAware ADS-B
Fri 11:14:32 PM 40.7690 -85.4200 234° Southwest 364 419 11,900 2,753 Climbing FlightAware ADS-B
Fri 11:15:02 PM 40.7250 -85.4730 222° Southwest 381 438 15,100 4,371 Climbing FlightAware ADS-B
Fri 11:15:42 PM 40.6720 -85.5310 220° Southwest 391 450 17,000 2,894 Climbing FlightAware ADS-B
Fri 11:16:27 PM 40.6030 -85.5990 217° Southwest 407 468 19,200 2,733 Climbing FlightAware ADS-B
Fri 11:17:12 PM 40.5320 -85.6690 217° Southwest 422 486 21,100 2,471 Climbing FlightAware ADS-B
Fri 11:17:52 PM 40.4720 -85.7280 217° Southwest 430 495 22,700 2,625 Climbing FlightAware ADS-B
Fri 11:18:32 PM 40.4060 -85.7930 217° Southwest 432 497 24,600 2,612 Climbing FlightAware ADS-B
Fri 11:19:17 PM 40.3330 -85.8650 217° Southwest 445 512 26,400 2,541 Climbing FlightAware ADS-B
Fri 11:19:57 PM 40.2670 -85.9290 217° Southwest 444 511 28,200 2,965 Climbing FlightAware ADS-B
Fri 11:20:42 PM 40.1960 -85.9980 217° Southwest 429 494 30,600 3,459 Climbing FlightAware ADS-B
Fri 11:21:22 PM 40.1340 -86.0580 217° Southwest 393 452 33,100 2,400 Climbing FlightAware ADS-B
Fri 11:22:07 PM 40.0700 -86.1210 217° Southwest 397 457 34,000 635 Climbing FlightAware ADS-B
Fri 11:22:47 PM 40.0070 -86.1820 217° Southwest 407 468 34,000 212 Level FlightAware ADS-B
Fri 11:23:32 PM 39.9370 -86.2490 216° Southwest 409 471 34,300 1,200 Climbing FlightAware ADS-B
Fri 11:24:02 PM 39.8920 -86.2930 217° Southwest 401 461 35,500 1,275 Climbing FlightAware ADS-B
Fri 11:24:52 PM 39.8190 -86.3610 216° Southwest 391 450 36,000 333 Climbing FlightAware ADS-B
Fri 11:25:32 PM 39.7600 -86.4080 211° Southwest 395 455 36,000  Level FlightAware ADS-B
Fri 11:26:17 PM 39.6860 -86.4650 211° Southwest 401 461 36,000  Level FlightAware ADS-B
Fri 11:26:57 PM 39.6230 -86.5130 210° Southwest 406 467 36,000  Level FlightAware ADS-B
Fri 11:27:42 PM 39.5480 -86.5700 210° Southwest 410 472 36,000  Level FlightAware ADS-B
Fri 11:28:22 PM 39.4820 -86.6190 210° Southwest 412 474 36,000  Level FlightAware ADS-B
Fri 11:29:02 PM 39.4160 -86.6690 210° Southwest 414 476 36,000  Level FlightAware ADS-B
Fri 11:29:47 PM 39.3390 -86.7270 210° Southwest 416 479 36,000  Level FlightAware ADS-B
Fri 11:30:27 PM 39.2760 -86.7740 210° Southwest 417 480 36,000  Level FlightAware ADS-B
Fri 11:31:12 PM 39.1980 -86.8320 210° Southwest 416 479 36,000  Level FlightAware ADS-B
Fri 11:31:52 PM 39.1330 -86.8820 211° Southwest 414 476 36,000  Level FlightAware ADS-B
Fri 11:32:32 PM 39.0660 -86.9310 210° Southwest 412 474 36,000  Level FlightAware ADS-B
Fri 11:33:17 PM 38.9910 -86.9860 210° Southwest 409 471 36,000  Level FlightAware ADS-B
Fri 11:33:57 PM 38.9240 -87.0360 210° Southwest 407 468 36,000  Level FlightAware ADS-B
Fri 11:34:42 PM 38.8540 -87.0880 210° Southwest 404 465 36,000  Level FlightAware ADS-B
Fri 11:35:22 PM 38.7880 -87.1370 210° Southwest 404 465 36,000  Level FlightAware ADS-B
Fri 11:36:02 PM 38.7230 -87.1850 210° Southwest 403 464 36,000  Level FlightAware ADS-B
Fri 11:36:47 PM 38.6500 -87.2380 210° Southwest 402 463 36,000  Level FlightAware ADS-B
Fri 11:37:27 PM 38.5850 -87.2870 211° Southwest 400 460 36,000  Level FlightAware ADS-B
Fri 11:38:07 PM 38.5230 -87.3310 209° Southwest 400 460 36,000  Level FlightAware ADS-B
Fri 11:38:52 PM 38.4500 -87.3850 210° Southwest 400 460 36,000  Level FlightAware ADS-B
Fri 11:39:32 PM 38.3860 -87.4310 209° Southwest 400 460 36,000  Level FlightAware ADS-B
Fri 11:40:17 PM 38.3140 -87.4830 210° Southwest 400 460 36,000  Level FlightAware ADS-B
Fri 11:40:57 PM 38.2470 -87.5330 210° Southwest 400 460 36,000  Level FlightAware ADS-B
Fri 11:41:42 PM 38.1760 -87.5840 209° Southwest 400 460 36,000  Level FlightAware ADS-B
Fri 11:42:22 PM 38.1110 -87.6300 209° Southwest 400 460 36,000  Level FlightAware ADS-B
Fri 11:43:07 PM 38.0370 -87.6840 210° Southwest 401 461 36,000  Level FlightAware ADS-B
Fri 11:43:47 PM 37.9730 -87.7290 209° Southwest 403 464 36,000  Level FlightAware ADS-B
Fri 11:44:32 PM 37.9080 -87.7910 217° Southwest 395 455 36,000  Level FlightAware ADS-B
Fri 11:45:12 PM 37.8590 -87.8610 228° Southwest 393 452 36,000  Level FlightAware ADS-B
Fri 11:45:52 PM 37.8120 -87.9310 230° Southwest 395 455 36,000  Level FlightAware ADS-B
Fri 11:46:32 PM 37.7650 -87.9990 229° Southwest 397 457 36,000  Level FlightAware ADS-B
Fri 11:47:17 PM 37.7080 -88.0800 228° Southwest 398 458 36,000  Level FlightAware ADS-B
Fri 11:47:57 PM 37.6610 -88.1480 229° Southwest 398 458 36,000  Level FlightAware ADS-B
Fri 11:48:42 PM 37.6060 -88.2270 229° Southwest 401 461 36,000 -424 Level FlightAware ADS-B
Fri 11:49:22 PM 37.5560 -88.2990 229° Southwest 403 464 35,400 -750 Descending FlightAware ADS-B
Fri 11:50:02 PM 37.5070 -88.3690 229° Southwest 410 472 35,000 -565 Descending FlightAware ADS-B
Fri 11:50:47 PM 37.4490 -88.4510 228° Southwest 410 472 34,600 -706 Descending FlightAware ADS-B
Fri 11:51:27 PM 37.3980 -88.5250 229° Southwest 411 473 34,000 -424 Descending FlightAware ADS-B
Fri 11:52:12 PM 37.3420 -88.6040 228° Southwest 413 475 34,000  Level FlightAware ADS-B
Fri 11:52:52 PM 37.2850 -88.6650 220° Southwest 417 480 34,000  Level FlightAware ADS-B
Fri 11:53:32 PM 37.2170 -88.7170 211° Southwest 421 484 34,000  Level FlightAware ADS-B
Fri 11:54:07 PM 37.1630 -88.7570 211° Southwest 422 486 34,000  Level FlightAware ADS-B
Fri 11:54:52 PM 37.0930 -88.8080 210° Southwest 422 486 34,000  Level FlightAware ADS-B
Fri 11:55:42 PM 37.0210 -88.8600 210° Southwest 422 486 34,000  Level FlightAware ADS-B
Fri 11:56:22 PM 36.9390 -88.9250 212° Southwest 413 475 34,000 -960 Level FlightAware ADS-B
Fri 11:56:57 PM 36.8840 -88.9670 211° Southwest 422 486 32,800 -1,400 Descending FlightAware ADS-B
Fri 11:57:52 PM 36.7890 -89.0360 210° Southwest 426 490 31,900 -514 Descending FlightAware ADS-B
Fri 11:58:42 PM 36.7170 -89.0890 211° Southwest 426 490 31,900  Level FlightAware ADS-B
Fri 11:59:22 PM 36.6590 -89.1300 210° Southwest 426 490 31,900  Level FlightAware ADS-B
Sat 12:00:02 AM 36.6010 -89.1720 210° Southwest 426 490 31,900  Level FlightAware ADS-B
Sat 12:00:42 AM 36.5430 -89.2140 210° Southwest 426 490 31,900  Level FlightAware ADS-B
Sat 12:01:22 AM 36.4850 -89.2560 210° Southwest 426 490 31,900  Level FlightAware ADS-B
Sat 12:02:12 AM 36.4120 -89.3080 210° Southwest 426 490 31,900  Level FlightAware ADS-B
Sat 12:02:52 AM 36.3540 -89.3490 210° Southwest 426 490 31,900  Level FlightAware ADS-B
Sat 12:03:32 AM 36.2960 -89.3910 210° Southwest 426 490 31,900  Level FlightAware ADS-B
Sat 12:04:12 AM 36.2380 -89.4320 210° Southwest 426 490 31,900  Level FlightAware ADS-B
Sat 12:05:02 AM 36.1660 -89.4840 210° Southwest 426 490 31,900  Level FlightAware ADS-B
Sat 12:05:32 AM 36.1220 -89.5150 210° Southwest 426 490 31,900  Level FlightAware ADS-B
Sat 12:06:12 AM 36.0640 -89.5570 210° Southwest 426 490 31,900  Level FlightAware ADS-B
Sat 12:07:02 AM 35.9910 -89.6090 210° Southwest 426 490 31,900 -9,943 Level FlightAware ADS-B
Sat 12:07:57 AM 35.8475 -89.5758 210° Southwest 339 390 14,500 -10,278 Descending Memphis Center
Sat 12:08:57 AM 35.8000 -89.6658 237° Southwest 329 379 12,200 -2,150 Descending Memphis Center
Sat 12:09:57 AM 35.7608 -89.7583 242° Southwest 318 366 10,200 -1,100 Descending Memphis Center
Sat 12:10:57 AM 35.7050 -89.8175 221° Southwest 298 343 10,000 -800 Descending Memphis Center
Sat 12:11:57 AM 35.6425 -89.8667 213° Southwest 259 298 8,600 -1,450 Descending Memphis Center
Sat 12:12:57 AM 35.5864 -89.9128 214° Southwest 246 283 7,100 -1,450 Descending Memphis Center
Sat 12:13:57 AM 35.5322 -89.9617 216° Southwest 246 283 5,700 -1,050 Descending Memphis Center
Sat 12:14:57 AM 35.4844 -90.0128 221° Southwest 241 277 5,000 -350 Descending Memphis Center
Sat 12:15:57 AM 35.4347 -90.0692 223° Southwest 241 277 5,000 -50 Level Memphis Center
Sat 12:16:57 AM 35.3889 -90.1125 218° Southwest 236 272 4,900 -500 Descending Memphis Center
Sat 12:17:57 AM 35.3283 -90.1433 203° Southwest 236 272 4,000 -450 Descending Memphis Center
Sat 12:18:57 AM 35.2658 -90.1408 178° South 236 272 4,000  Level Memphis Center
Sat 12:19:57 AM 35.2117 -90.1411 180° South 214 246 4,000 -500 Level Memphis Center
Sat 12:20:57 AM 35.1594 -90.1589 196° South 201 231 3,000 -500 Descending Memphis Center
Sat 12:21:57 AM 35.1136 -90.1617 183° South 185 213 3,000 -350 Level Memphis Center
Sat 12:22:57 AM 35.0739 -90.1364 152° Southeast 158 182 2,300 -529 Descending Memphis Center
Sat 12:25:21 AM 35.0667 -90.0333 95° East 94 108 1,200 -500 Descending KMEM
Sat 12:26:21 AM 35.0667 -90.0000 90° East 115 132 600 -600 Descending KMEM
Sat 12:28:00 AM 35.0424 -89.9767 North  Level Estimated
Sat 12:35:00 AM 35.0424 -89.9767 North  Level Estimated
Sat 12:36:00 AM 35.0424 -89.9767 North  Level Estimated
Sat 12:37:00 AM 35.0424 -89.9767 North  Level Estimated
Sat 12:38:00 AM 35.0424 -89.9767 North  Level Estimated
Sat 12:39:00 AM 35.0424 -89.9767 North  Level Estimated
Sat 12:40:00 AM 35.0424 -89.9767 North  Level Estimated
Sat 12:41:00 AM 35.0424 -89.9767 North  Level Estimated

Login

Don't have an account? Register now (free) for customized features, flight alerts, and more!